createdAt,value
2024-04-06T00:00:43.392Z,65.96
2024-04-06T00:03:31.271Z,66.13
2024-04-06T00:05:59.584Z,66.21
2024-04-06T00:08:27.887Z,66.28
2024-04-06T00:10:55.835Z,66.32
2024-04-06T00:13:23.576Z,66.25
2024-04-06T00:15:51.565Z,66.54
2024-04-06T00:18:19.358Z,66.62
2024-04-06T00:20:47.302Z,66.48
2024-04-06T00:23:15.238Z,66.59
2024-04-06T00:25:43.267Z,66.71
2024-04-06T00:28:11.064Z,66.79
2024-04-06T00:30:38.934Z,66.84
2024-04-06T00:33:06.715Z,67.20
2024-04-06T00:35:34.601Z,66.98
2024-04-06T00:38:02.422Z,66.96
2024-04-06T00:40:30.244Z,67.24
2024-04-06T00:42:58.000Z,67.24
2024-04-06T00:45:25.966Z,67.10
2024-04-06T00:47:54.282Z,67.44
2024-04-06T00:50:22.768Z,67.58
2024-04-06T00:52:50.608Z,67.68
2024-04-06T00:55:18.949Z,67.54
2024-04-06T00:57:47.534Z,67.52
2024-04-06T01:00:15.898Z,67.52
2024-04-06T01:02:43.833Z,67.68
2024-04-06T01:05:11.908Z,67.60
2024-04-06T01:07:43.753Z,67.52
2024-04-06T01:10:11.723Z,67.37
2024-04-06T01:12:39.812Z,67.53
2024-04-06T01:15:08.041Z,67.59
2024-04-06T01:17:36.152Z,67.53
2024-04-06T01:20:07.985Z,67.72
2024-04-06T01:22:35.924Z,67.80
2024-04-06T01:25:05.489Z,67.92
2024-04-06T01:27:33.397Z,68.09
2024-04-06T01:30:02.092Z,68.35
2024-04-06T01:32:29.912Z,68.61
2024-04-06T01:34:58.211Z,68.44
2024-04-06T01:37:26.081Z,68.64
2024-04-06T01:39:53.841Z,68.83
2024-04-06T01:42:21.610Z,68.56
2024-04-06T01:44:49.419Z,68.79
2024-04-06T01:47:17.213Z,68.92
2024-04-06T01:49:45.084Z,69.03
2024-04-06T01:52:12.914Z,68.82
2024-04-06T01:54:41.092Z,68.92
2024-04-06T01:57:09.066Z,69.15
2024-04-06T01:59:40.315Z,69.45
2024-04-06T02:02:08.196Z,69.59
2024-04-06T02:04:36.299Z,69.94
2024-04-06T02:07:05.802Z,69.96
2024-04-06T02:09:33.912Z,70.10
2024-04-06T02:12:01.836Z,70.23
2024-04-06T02:14:29.678Z,70.27
2024-04-06T02:16:57.674Z,70.01
2024-04-06T02:19:25.416Z,70.12
2024-04-06T02:21:53.260Z,70.67
2024-04-06T02:24:21.484Z,71.05
2024-04-06T02:26:49.899Z,70.98
2024-04-06T02:29:19.489Z,70.81
2024-04-06T02:31:47.745Z,70.92
2024-04-06T02:34:15.628Z,71.04
2024-04-06T02:36:43.473Z,70.95
2024-04-06T02:39:11.707Z,71.13
2024-04-06T02:41:39.739Z,71.17
2024-04-06T02:44:07.703Z,71.29
2024-04-06T02:46:35.550Z,71.12
2024-04-06T02:49:03.342Z,71.26
2024-04-06T02:51:31.341Z,71.29
2024-04-06T02:53:59.100Z,71.36
2024-04-06T02:56:26.966Z,71.61
2024-04-06T02:58:54.883Z,71.61
2024-04-06T03:01:22.698Z,71.48
2024-04-06T03:03:50.543Z,71.49
2024-04-06T03:06:18.286Z,71.48
2024-04-06T03:08:46.062Z,71.19
2024-04-06T03:11:14.017Z,71.02
2024-04-06T03:13:41.795Z,71.03
2024-04-06T03:16:09.545Z,70.93
2024-04-06T03:18:37.459Z,70.75
2024-04-06T03:21:05.750Z,70.47
2024-04-06T03:23:33.644Z,70.53
2024-04-06T03:26:01.473Z,70.23
2024-04-06T03:28:30.251Z,70.26
2024-04-06T03:31:00.010Z,70.38
2024-04-06T03:33:27.852Z,70.37
2024-04-06T03:35:56.048Z,70.22
2024-04-06T03:38:23.861Z,70.23
2024-04-06T03:40:51.720Z,70.05
2024-04-06T03:43:19.615Z,70.23
2024-04-06T03:45:48.240Z,70.16
2024-04-06T03:48:15.992Z,70.20
2024-04-06T03:50:43.879Z,70.12
2024-04-06T03:53:12.530Z,70.17
2024-04-06T03:55:40.733Z,70.27
2024-04-06T03:58:09.108Z,69.95
2024-04-06T04:00:37.387Z,70.15
2024-04-06T04:03:05.517Z,70.17
2024-04-06T04:05:33.602Z,70.43
2024-04-06T04:08:01.501Z,70.26
2024-04-06T04:10:29.507Z,70.09
2024-04-06T04:12:58.897Z,70.28
2024-04-06T04:15:26.726Z,70.34
2024-04-06T04:17:55.041Z,70.41
2024-04-06T04:20:22.812Z,70.14
2024-04-06T04:22:50.969Z,70.12
2024-04-06T04:25:18.731Z,70.20
2024-04-06T04:27:46.901Z,70.43
2024-04-06T04:30:16.853Z,70.57
2024-04-06T04:32:44.815Z,70.52
2024-04-06T04:35:12.968Z,70.41
2024-04-06T04:37:40.799Z,70.66
2024-04-06T04:40:09.650Z,70.84
2024-04-06T04:42:38.598Z,70.82
2024-04-06T04:45:14.939Z,70.93
2024-04-06T04:47:43.377Z,70.70
2024-04-06T04:50:11.333Z,70.81
2024-04-06T04:52:39.279Z,70.87
2024-04-06T04:55:07.276Z,70.63
2024-04-06T04:57:35.219Z,70.32
2024-04-06T05:00:04.073Z,70.12
2024-04-06T05:02:32.066Z,69.96
2024-04-06T05:05:00.195Z,69.96
2024-04-06T05:07:28.485Z,70.14
2024-04-06T05:09:56.305Z,70.01
2024-04-06T05:12:24.173Z,69.79
2024-04-06T05:14:52.142Z,69.84
2024-04-06T05:17:19.988Z,69.71
2024-04-06T05:19:47.769Z,69.61
2024-04-06T05:22:15.800Z,69.53
2024-04-06T05:24:43.859Z,69.44
2024-04-06T05:27:12.123Z,69.77
2024-04-06T05:29:39.962Z,69.74
2024-04-06T05:32:07.804Z,69.71
2024-04-06T05:34:35.734Z,69.27
2024-04-06T05:37:03.747Z,69.28
2024-04-06T05:39:31.603Z,69.64
2024-04-06T05:41:59.484Z,69.71
2024-04-06T05:44:27.322Z,69.81
2024-04-06T05:46:55.433Z,69.63
2024-04-06T05:49:23.361Z,69.38
2024-04-06T05:51:51.139Z,69.35
2024-04-06T05:54:18.976Z,68.88
2024-04-06T05:56:47.279Z,68.91
2024-04-06T05:59:15.461Z,68.58
2024-04-06T06:01:43.224Z,68.60
2024-04-06T06:04:11.647Z,68.50
2024-04-06T06:06:39.474Z,68.21
2024-04-06T06:09:07.249Z,68.51
2024-04-06T06:11:35.030Z,68.42
2024-04-06T06:14:02.927Z,68.18
2024-04-06T06:16:30.843Z,68.20
2024-04-06T06:18:58.770Z,67.79
2024-04-06T06:21:26.451Z,67.75
2024-04-06T06:23:54.729Z,67.54
2024-04-06T06:26:22.446Z,67.18
2024-04-06T06:28:50.325Z,67.02
2024-04-06T06:31:18.130Z,66.57
2024-04-06T06:33:45.881Z,66.34
2024-04-06T06:41:17.125Z,65.67
2024-04-06T06:43:44.987Z,65.48
2024-04-06T06:46:12.980Z,64.97
2024-04-06T06:48:40.872Z,64.68
2024-04-06T06:51:08.651Z,64.34
2024-04-06T06:53:36.501Z,64.27
2024-04-06T06:56:04.627Z,63.89
2024-04-06T06:58:32.773Z,63.77
2024-04-06T07:01:00.642Z,63.53
2024-04-06T07:03:28.458Z,63.04
2024-04-06T07:05:56.713Z,62.78
2024-04-06T07:08:24.831Z,62.53
2024-04-06T07:10:52.920Z,62.17
2024-04-06T07:13:20.841Z,61.90
2024-04-06T07:15:48.618Z,62.20
2024-04-06T07:18:16.406Z,62.21
2024-04-06T07:20:44.233Z,61.87
2024-04-06T07:23:12.123Z,62.16
2024-04-06T07:25:39.856Z,61.73
2024-04-06T07:28:07.831Z,61.17
2024-04-06T07:30:36.070Z,60.86
2024-04-06T07:33:04.107Z,60.83
2024-04-06T07:35:32.028Z,60.86
2024-04-06T07:37:59.892Z,60.54
2024-04-06T07:40:27.783Z,60.66
2024-04-06T07:42:55.644Z,60.89
2024-04-06T07:45:23.396Z,60.60
2024-04-06T07:47:52.875Z,60.44
2024-04-06T07:50:20.848Z,61.02
2024-04-06T07:52:49.064Z,60.93
2024-04-06T07:55:17.233Z,60.38
2024-04-06T07:57:45.892Z,59.43
2024-04-06T08:00:14.868Z,58.65
2024-04-06T08:02:43.079Z,58.56
2024-04-06T08:05:10.866Z,58.26
2024-04-06T08:07:38.829Z,58.53
2024-04-06T08:10:17.999Z,58.23
2024-04-06T08:12:46.721Z,58.33
2024-04-06T08:15:15.633Z,57.90
2024-04-06T08:17:54.875Z,57.63
2024-04-06T08:20:22.823Z,57.74
2024-04-06T08:22:50.532Z,57.45
2024-04-06T08:25:18.323Z,57.71
2024-04-06T08:27:46.708Z,57.95
2024-04-06T08:30:15.297Z,57.50
2024-04-06T08:32:44.571Z,57.66
2024-04-06T08:35:20.996Z,57.97
2024-04-06T08:37:48.935Z,58.38
2024-04-06T08:40:17.526Z,58.24
2024-04-06T08:42:46.029Z,58.08
2024-04-06T08:45:14.046Z,57.89
2024-04-06T08:47:42.719Z,57.63
2024-04-06T08:50:11.807Z,57.72
2024-04-06T08:52:40.455Z,57.94
2024-04-06T08:55:10.182Z,57.91
2024-04-06T08:57:40.565Z,58.05
2024-04-06T09:00:11.112Z,58.02
2024-04-06T09:02:39.755Z,58.32
2024-04-06T09:05:07.867Z,58.21
2024-04-06T09:07:35.982Z,58.43
2024-04-06T09:10:04.103Z,58.34
2024-04-06T09:12:31.937Z,58.18
2024-04-06T09:15:00.946Z,58.57
2024-04-06T09:17:30.373Z,58.64
2024-04-06T09:19:58.248Z,58.74
2024-04-06T09:22:26.173Z,58.92
2024-04-06T09:24:55.669Z,58.89
2024-04-06T09:27:23.540Z,58.76
2024-04-06T09:29:51.451Z,59.00
2024-04-06T09:32:24.644Z,59.21
2024-04-06T09:34:54.134Z,59.20
2024-04-06T09:37:37.146Z,59.48
2024-04-06T09:40:08.136Z,60.21
2024-04-06T09:42:37.607Z,60.85
2024-04-06T09:45:07.043Z,62.45
2024-04-06T09:47:36.202Z,63.39
2024-04-06T09:50:05.407Z,63.75
2024-04-06T09:52:33.612Z,64.64
2024-04-06T09:55:03.265Z,65.18
2024-04-06T09:57:31.412Z,65.79
2024-04-06T10:00:05.613Z,65.87
2024-04-06T10:02:34.856Z,67.04
2024-04-06T10:05:07.005Z,67.88
2024-04-06T10:07:35.736Z,68.16
2024-04-06T10:10:05.533Z,68.81
2024-04-06T10:12:44.716Z,69.43
2024-04-06T10:15:13.393Z,70.04
2024-04-06T10:17:53.665Z,70.62
2024-04-06T10:20:25.494Z,70.73
2024-04-06T10:23:00.608Z,71.42
2024-04-06T10:25:37.919Z,72.00
2024-04-06T10:28:10.875Z,72.39
2024-04-06T10:30:40.036Z,72.78
2024-04-06T10:33:08.619Z,73.03
2024-04-06T10:35:36.947Z,73.38
2024-04-06T10:38:07.659Z,73.63
2024-04-06T10:40:36.722Z,74.13
2024-04-06T10:43:07.256Z,74.15
2024-04-06T10:45:35.206Z,74.37
2024-04-06T10:48:03.910Z,74.60
2024-04-06T10:50:32.319Z,74.72
2024-04-06T10:53:01.492Z,74.93
2024-04-06T10:55:29.926Z,74.92
2024-04-06T10:57:57.730Z,74.46
2024-04-06T11:00:27.576Z,74.26
2024-04-06T11:03:02.301Z,74.85
2024-04-06T11:05:31.223Z,74.77
2024-04-06T11:07:59.052Z,74.94
2024-04-06T11:10:27.916Z,75.43
2024-04-06T11:12:57.296Z,75.42
2024-04-06T11:15:27.129Z,75.68
2024-04-06T11:17:55.935Z,76.09
2024-04-06T11:20:24.556Z,76.40
2024-04-06T11:22:52.467Z,76.37
2024-04-06T11:25:21.488Z,76.31
2024-04-06T11:27:51.019Z,76.17
2024-04-06T11:30:20.508Z,76.05
2024-04-06T11:32:53.162Z,76.50
2024-04-06T11:35:21.053Z,76.66
2024-04-06T11:37:48.775Z,76.83
2024-04-06T11:40:16.699Z,76.51
2024-04-06T11:42:44.512Z,76.76
2024-04-06T11:45:12.336Z,77.03
2024-04-06T11:47:42.378Z,77.28
2024-04-06T11:50:10.534Z,77.75
2024-04-06T11:52:39.914Z,77.96
2024-04-06T11:55:07.855Z,78.05
2024-04-06T11:57:36.355Z,77.82
2024-04-06T12:00:07.122Z,77.58
2024-04-06T12:02:35.148Z,77.44
2024-04-06T12:05:03.035Z,77.09
2024-04-06T12:07:31.566Z,76.90
2024-04-06T12:09:59.979Z,76.43
2024-04-06T12:12:27.876Z,76.47
2024-04-06T12:14:55.727Z,76.65
2024-04-06T12:17:28.396Z,76.75
2024-04-06T12:19:56.493Z,76.76
2024-04-06T12:22:24.760Z,77.00
2024-04-06T12:24:53.405Z,76.59
2024-04-06T12:27:21.489Z,76.29
2024-04-06T12:29:50.340Z,76.41
2024-04-06T12:32:18.390Z,76.07
2024-04-06T12:34:46.255Z,75.79
2024-04-06T12:37:15.319Z,75.64
2024-04-06T12:39:43.640Z,75.68
2024-04-06T12:42:11.630Z,75.63
2024-04-06T12:44:39.546Z,75.61
2024-04-06T12:47:07.394Z,75.00
2024-04-06T12:49:35.266Z,75.33
2024-04-06T12:52:03.326Z,75.32
2024-04-06T12:54:33.077Z,75.25
2024-04-06T12:57:19.877Z,75.04
2024-04-06T12:59:47.694Z,75.31
2024-04-06T13:02:15.538Z,75.26
2024-04-06T13:04:43.422Z,75.13
2024-04-06T13:07:11.356Z,75.12
2024-04-06T13:09:39.284Z,75.14
2024-04-06T13:12:07.318Z,75.43
2024-04-06T13:14:35.227Z,75.48
2024-04-06T13:17:03.015Z,74.92
2024-04-06T13:19:30.986Z,74.80
2024-04-06T13:21:59.290Z,74.85
2024-04-06T13:24:27.114Z,74.82
2024-04-06T13:26:54.944Z,74.97
2024-04-06T13:29:23.251Z,74.22
2024-04-06T13:31:53.931Z,74.23
2024-04-06T13:34:22.836Z,74.69
2024-04-06T13:36:50.634Z,74.79
2024-04-06T13:39:21.043Z,74.73
2024-04-06T13:41:48.842Z,74.54
2024-04-06T13:44:16.834Z,74.68
2024-04-06T13:46:44.643Z,74.48
2024-04-06T13:49:12.706Z,74.43
2024-04-06T13:51:40.995Z,74.26
2024-04-06T13:54:08.872Z,74.37
2024-04-06T13:56:36.712Z,74.54
2024-04-06T13:59:04.638Z,74.44
2024-04-06T14:01:32.555Z,74.47
2024-04-06T14:04:00.646Z,74.79
2024-04-06T14:06:28.573Z,74.79
2024-04-06T14:08:56.544Z,74.96
2024-04-06T14:11:34.541Z,75.03
2024-04-06T14:14:03.974Z,75.23
2024-04-06T14:16:31.890Z,75.35
2024-04-06T14:18:59.815Z,75.23
2024-04-06T14:21:27.855Z,75.31
2024-04-06T14:23:56.008Z,75.64
2024-04-06T14:26:23.880Z,75.76
2024-04-06T14:28:52.687Z,75.88
2024-04-06T14:31:20.538Z,76.05
2024-04-06T14:33:48.888Z,75.85
2024-04-06T14:36:16.765Z,75.86
2024-04-06T14:38:45.242Z,75.91
2024-04-06T14:41:13.112Z,76.01
2024-04-06T14:43:40.944Z,76.07
2024-04-06T14:46:08.802Z,75.92
2024-04-06T14:48:36.719Z,75.96
2024-04-06T14:51:04.944Z,75.90
2024-04-06T14:53:32.774Z,75.70
2024-04-06T14:56:00.657Z,75.69
2024-04-06T14:58:28.417Z,75.77
2024-04-06T15:00:56.545Z,75.58
2024-04-06T15:03:24.381Z,75.40
2024-04-06T15:05:53.231Z,75.61
2024-04-06T15:08:21.444Z,75.54
2024-04-06T15:10:49.612Z,75.87
2024-04-06T15:13:19.488Z,76.08
2024-04-06T15:15:47.651Z,75.98
2024-04-06T15:18:15.451Z,75.87
2024-04-06T15:20:43.186Z,75.76
2024-04-06T15:23:12.094Z,76.00
2024-04-06T15:25:40.496Z,76.02
2024-04-06T15:28:08.455Z,75.82
2024-04-06T15:30:36.292Z,75.98
2024-04-06T15:33:04.277Z,75.90
2024-04-06T15:35:32.276Z,75.77
2024-04-06T15:38:00.151Z,75.91
2024-04-06T15:40:28.125Z,76.14
2024-04-06T15:42:56.139Z,76.29
2024-04-06T15:45:23.960Z,76.26
2024-04-06T15:47:51.964Z,76.24
2024-04-06T15:50:19.843Z,76.28
2024-04-06T15:52:47.640Z,76.43
2024-04-06T15:55:19.137Z,76.21
2024-04-06T15:57:47.595Z,76.13
2024-04-06T16:00:15.635Z,76.15
2024-04-06T16:02:43.454Z,76.63
2024-04-06T16:05:11.272Z,76.64
2024-04-06T16:07:39.969Z,76.72
2024-04-06T16:10:08.168Z,76.62
2024-04-06T16:12:36.384Z,76.77
2024-04-06T16:15:06.975Z,76.93
2024-04-06T16:17:35.156Z,77.25
2024-04-06T16:20:04.160Z,77.27
2024-04-06T16:22:33.088Z,77.13
2024-04-06T16:25:01.202Z,77.28
2024-04-06T16:27:29.190Z,77.61
2024-04-06T16:29:57.152Z,77.70
2024-04-06T16:32:25.084Z,77.36
2024-04-06T16:34:52.839Z,77.49
2024-04-06T16:37:20.956Z,77.86
2024-04-06T16:39:48.727Z,77.99
2024-04-06T16:42:16.660Z,78.06
2024-04-06T16:44:44.441Z,78.37
2024-04-06T16:47:12.533Z,78.18
2024-04-06T16:49:40.327Z,78.16
2024-04-06T16:52:08.655Z,78.19
2024-04-06T16:54:36.464Z,78.09
2024-04-06T16:57:04.407Z,77.91
2024-04-06T16:59:34.620Z,78.05
2024-04-06T17:02:05.021Z,78.33
2024-04-06T17:04:34.202Z,78.47
2024-04-06T17:07:02.213Z,78.46
2024-04-06T17:09:32.726Z,78.34
2024-04-06T17:12:00.579Z,78.56
2024-04-06T17:14:29.014Z,78.46
2024-04-06T17:16:57.178Z,78.41
2024-04-06T17:19:25.156Z,78.50
2024-04-06T17:21:52.934Z,78.68
2024-04-06T17:24:20.771Z,78.80
2024-04-06T17:26:48.558Z,78.83
2024-04-06T17:29:16.568Z,79.12
2024-04-06T17:31:44.637Z,79.28
2024-04-06T17:34:12.657Z,79.35
2024-04-06T17:36:40.572Z,79.05
2024-04-06T17:39:13.687Z,79.03
2024-04-06T17:41:41.714Z,78.88
2024-04-06T17:44:10.424Z,79.06
2024-04-06T17:46:38.363Z,79.07
2024-04-06T17:49:06.181Z,79.32
2024-04-06T17:51:34.810Z,79.59
2024-04-06T17:54:02.729Z,79.75
2024-04-06T17:56:30.565Z,79.78
2024-04-06T17:58:58.680Z,79.68
2024-04-06T18:01:27.100Z,79.61
2024-04-06T18:03:55.042Z,79.69
2024-04-06T18:06:25.828Z,79.55
2024-04-06T18:08:53.843Z,79.65
2024-04-06T18:11:21.633Z,79.39
2024-04-06T18:13:49.426Z,79.64
2024-04-06T18:16:18.962Z,79.68
2024-04-06T18:18:48.076Z,80.04
2024-04-06T18:21:18.709Z,80.15
2024-04-06T18:23:46.874Z,79.71
2024-04-06T18:26:14.781Z,79.78
2024-04-06T18:28:42.769Z,79.96
2024-04-06T18:31:11.069Z,79.70
2024-04-06T18:33:42.000Z,79.78
2024-04-06T18:36:09.729Z,79.94
2024-04-06T18:38:37.613Z,80.11
2024-04-06T18:41:05.362Z,80.08
2024-04-06T18:43:33.315Z,80.08
2024-04-06T18:46:01.124Z,80.67
2024-04-06T18:48:29.248Z,81.17
2024-04-06T18:50:57.656Z,80.92
2024-04-06T18:53:25.529Z,81.48
2024-04-06T18:55:53.343Z,81.53
2024-04-06T18:58:21.424Z,81.89
2024-04-06T19:00:49.299Z,81.74
2024-04-06T19:03:17.658Z,81.49
2024-04-06T19:05:45.547Z,81.60
2024-04-06T19:08:13.421Z,81.76
2024-04-06T19:10:41.377Z,81.81
2024-04-06T19:13:09.382Z,81.61
2024-04-06T19:15:37.447Z,81.78
2024-04-06T19:18:05.555Z,81.76
2024-04-06T19:20:34.105Z,81.68
2024-04-06T19:23:02.434Z,81.38
2024-04-06T19:25:30.492Z,81.33
2024-04-06T19:27:58.294Z,81.47
2024-04-06T19:30:26.148Z,81.43
2024-04-06T19:32:54.420Z,80.93
2024-04-06T19:35:22.480Z,81.02
2024-04-06T19:37:50.228Z,81.44
2024-04-06T19:40:18.144Z,82.20
2024-04-06T19:42:45.930Z,82.44
2024-04-06T19:45:13.731Z,82.56
2024-04-06T19:47:41.760Z,82.70
2024-04-06T19:50:09.704Z,82.71
2024-04-06T19:52:37.762Z,82.87
2024-04-06T19:55:05.838Z,82.90
2024-04-06T19:57:34.132Z,82.50
2024-04-06T20:00:02.392Z,82.62
2024-04-06T20:02:30.363Z,82.53
2024-04-06T20:04:58.211Z,82.39
2024-04-06T20:07:25.957Z,82.52
2024-04-06T20:09:53.751Z,82.84
2024-04-06T20:12:21.793Z,82.54
2024-04-06T20:14:52.584Z,82.33
2024-04-06T20:17:20.573Z,82.57
2024-04-06T20:19:48.920Z,82.63
2024-04-06T20:22:35.950Z,82.65
2024-04-06T20:25:22.427Z,82.72
2024-04-06T20:27:50.319Z,82.64
2024-04-06T20:30:18.071Z,82.07
2024-04-06T20:32:45.987Z,82.17
2024-04-06T20:35:13.777Z,81.86
2024-04-06T20:37:41.700Z,81.93
2024-04-06T20:40:11.238Z,82.35
2024-04-06T20:42:40.347Z,82.30
2024-04-06T20:45:09.263Z,82.42
2024-04-06T20:47:36.994Z,82.12
2024-04-06T20:50:05.606Z,81.87
2024-04-06T20:52:34.901Z,81.71
2024-04-06T20:55:02.780Z,81.97
2024-04-06T20:57:30.672Z,81.91
2024-04-06T20:59:58.856Z,81.68
2024-04-06T21:02:26.808Z,81.67
2024-04-06T21:04:54.575Z,81.89
2024-04-06T21:07:22.652Z,81.70
2024-04-06T21:09:50.575Z,81.58
2024-04-06T21:12:18.672Z,81.52
2024-04-06T21:14:46.753Z,81.50
2024-04-06T21:17:14.736Z,81.32
2024-04-06T21:19:42.526Z,81.19
2024-04-06T21:22:10.411Z,81.70
2024-04-06T21:24:38.343Z,81.65
2024-04-06T21:27:06.173Z,81.66
2024-04-06T21:29:34.011Z,81.74
2024-04-06T21:32:01.824Z,81.93
2024-04-06T21:34:29.670Z,82.23
2024-04-06T21:36:57.526Z,82.42
2024-04-06T21:39:25.757Z,82.53
2024-04-06T21:41:53.650Z,82.90
2024-04-06T21:44:21.433Z,83.42
2024-04-06T21:46:49.132Z,84.13
2024-04-06T21:49:17.049Z,84.15
2024-04-06T21:51:44.830Z,83.96
2024-04-06T21:54:12.653Z,84.02
2024-04-06T21:56:40.425Z,83.14
2024-04-06T21:59:08.668Z,83.21
2024-04-06T22:01:37.254Z,83.28
2024-04-06T22:04:05.555Z,82.99
2024-04-06T22:06:33.312Z,82.56
2024-04-06T22:09:01.093Z,82.77
2024-04-06T22:11:29.914Z,83.18
2024-04-06T22:13:57.817Z,83.86
2024-04-06T22:16:25.603Z,84.32
2024-04-06T22:18:53.504Z,84.43
2024-04-06T22:21:21.332Z,84.60
2024-04-06T22:23:49.198Z,84.48
2024-04-06T22:26:17.011Z,84.29
2024-04-06T22:28:44.796Z,84.21
2024-04-06T22:31:14.074Z,84.11
2024-04-06T22:33:42.392Z,83.50
2024-04-06T22:36:10.256Z,83.60
2024-04-06T22:38:38.117Z,83.67
2024-04-06T22:41:06.942Z,83.48
2024-04-06T22:43:34.878Z,83.20
2024-04-06T22:46:02.981Z,83.01
2024-04-06T22:48:31.237Z,82.78
2024-04-06T22:50:59.131Z,82.57
2024-04-06T22:53:27.027Z,82.57
2024-04-06T22:55:54.824Z,82.44
2024-04-06T22:58:22.730Z,82.33
2024-04-06T23:00:50.542Z,82.42
2024-04-06T23:03:18.288Z,82.64
2024-04-06T23:05:46.046Z,83.04
2024-04-06T23:08:13.825Z,83.13
2024-04-06T23:10:42.382Z,82.96
2024-04-06T23:13:10.213Z,83.27
2024-04-06T23:15:38.262Z,83.78
2024-04-06T23:18:06.019Z,84.08
2024-04-06T23:20:35.163Z,83.84
2024-04-06T23:23:03.292Z,83.40
2024-04-06T23:25:31.218Z,83.68
2024-04-06T23:27:59.255Z,83.44
2024-04-06T23:30:27.042Z,83.79
2024-04-06T23:32:54.904Z,83.73
2024-04-06T23:35:22.873Z,83.41
2024-04-06T23:37:52.341Z,83.12
2024-04-06T23:40:22.121Z,83.00
2024-04-06T23:42:49.922Z,83.24
2024-04-06T23:45:17.697Z,83.41
2024-04-06T23:47:45.488Z,83.34
2024-04-06T23:50:13.261Z,83.75
2024-04-06T23:52:41.058Z,83.45
2024-04-06T23:55:09.462Z,83.33
2024-04-06T23:57:37.195Z,83.23
